Time;durP1;ratioP1;P1;durP2;ratioP2;P2;SDS_P1;SDS_P2;PMS_P1;PMS_P2;Temp;Humidity;BMP_temperature;BMP_pressure;BME280_temperature;BME280_humidity;BME280_pressure;Samples;Min_cycle;Max_cycle;Signal;HPM_P1;HPM_P2
2023/05/18 00:01:52;;;;;;;0.20;0.20;;;7.00;99.90;;;;;;5036273;28;20101;-74
2023/05/18 00:04:22;;;;;;;0.20;0.20;;;6.90;99.90;;;;;;5036017;28;20068;-75
2023/05/18 00:06:55;;;;;;;0.20;0.20;;;6.90;99.90;;;;;;5036648;28;20424;-74
2023/05/18 00:09:26;;;;;;;0.20;0.20;;;7.00;99.90;;;;;;5036019;28;20025;-74
2023/05/18 00:11:52;;;;;;;0.30;0.30;;;7.00;99.90;;;;;;5035881;28;20483;-74
2023/05/18 00:14:18;;;;;;;0.25;0.25;;;6.90;99.90;;;;;;5035952;28;20033;-74
2023/05/18 00:16:44;;;;;;;0.25;0.25;;;6.80;99.90;;;;;;5033374;28;20087;-74
2023/05/18 00:19:13;;;;;;;0.20;0.20;;;6.80;99.90;;;;;;5018200;28;20057;-74
2023/05/18 00:21:39;;;;;;;0.20;0.20;;;6.70;99.90;;;;;;5017821;28;20087;-74
2023/05/18 00:24:05;;;;;;;0.20;0.20;;;6.70;99.90;;;;;;5034157;28;20108;-74
2023/05/18 00:26:31;;;;;;;0.20;0.20;;;6.70;99.90;;;;;;5020893;28;20382;-73
2023/05/18 00:28:56;;;;;;;0.20;0.20;;;6.70;99.90;;;;;;5016016;28;20026;-74
2023/05/18 00:31:22;;;;;;;0.20;0.20;;;6.70;99.90;;;;;;5008865;28;20112;-74
2023/05/18 00:33:47;;;;;;;0.20;0.20;;;6.80;99.90;;;;;;5017545;28;20022;-74
2023/05/18 00:36:13;;;;;;;0.20;0.20;;;6.80;99.90;;;;;;5033279;28;20025;-74
2023/05/18 00:38:38;;;;;;;0.20;0.20;;;6.70;99.90;;;;;;5035286;28;20021;-74
2023/05/18 00:41:04;;;;;;;0.10;0.10;;;6.80;99.90;;;;;;5014032;28;20026;-74
2023/05/18 00:43:29;;;;;;;0.13;0.13;;;6.80;99.90;;;;;;5035024;28;20021;-74
2023/05/18 00:45:55;;;;;;;0.30;0.30;;;6.80;99.90;;;;;;5035111;28;20029;-74
2023/05/18 00:48:20;;;;;;;0.17;0.17;;;6.80;99.90;;;;;;5035201;28;20491;-74
2023/05/18 00:50:46;;;;;;;0.20;0.20;;;6.80;99.90;;;;;;5034964;28;20041;-74
2023/05/18 00:53:12;;;;;;;0.28;0.28;;;6.80;99.90;;;;;;5035174;28;20076;-74
2023/05/18 00:55:37;;;;;;;0.10;0.10;;;6.80;99.90;;;;;;5035299;28;20057;-74
2023/05/18 00:58:04;;;;;;;0.20;0.20;;;6.80;99.90;;;;;;5033428;28;20048;-74
2023/05/18 01:00:30;;;;;;;0.17;0.17;;;6.80;99.90;;;;;;5034965;28;20368;-74
2023/05/18 01:02:55;;;;;;;0.20;0.20;;;6.80;99.90;;;;;;5023758;28;20083;-74
2023/05/18 01:05:21;;;;;;;0.20;0.20;;;6.80;99.90;;;;;;5019003;28;20072;-74
2023/05/18 01:07:47;;;;;;;0.15;0.15;;;6.70;99.90;;;;;;5034857;28;20096;-74
2023/05/18 01:10:15;;;;;;;0.20;0.20;;;6.70;99.90;;;;;;5034945;28;20024;-74
2023/05/18 01:12:55;;;;;;;0.20;0.20;;;6.70;99.90;;;;;;5034786;28;20021;-74
2023/05/18 01:15:43;;;;;;;0.20;0.20;;;6.60;99.90;;;;;;5033984;28;20392;-74
2023/05/18 01:18:16;;;;;;;0.20;0.20;;;6.60;99.90;;;;;;5034293;28;20034;-74
2023/05/18 01:21:18;;;;;;;0.20;0.20;;;6.60;99.90;;;;;;5034174;28;20025;-74
2023/05/18 01:23:55;;;;;;;0.30;0.30;;;6.50;99.90;;;;;;5018374;28;20495;-74
2023/05/18 01:26:28;;;;;;;0.20;0.20;;;6.60;99.90;;;;;;5014504;28;20075;-74
2023/05/18 01:29:00;;;;;;;0.22;0.22;;;6.60;99.90;;;;;;5011687;28;20029;-74
2023/05/18 01:31:26;;;;;;;0.10;0.10;;;6.50;99.90;;;;;;5014818;28;20033;-74
2023/05/18 01:33:52;;;;;;;0.20;0.20;;;6.60;99.90;;;;;;5014640;28;20075;-74
2023/05/18 01:36:18;;;;;;;0.30;0.30;;;6.50;99.90;;;;;;5028964;28;20111;-74
2023/05/18 01:38:44;;;;;;;0.20;0.20;;;6.50;99.90;;;;;;5031898;28;20105;-74
2023/05/18 01:41:25;;;;;;;0.20;0.20;;;6.50;99.90;;;;;;5021223;28;20017;-74
2023/05/18 01:43:58;;;;;;;0.25;0.25;;;6.50;99.90;;;;;;5019221;28;20030;-74
2023/05/18 01:46:40;;;;;;;0.20;0.20;;;6.50;99.90;;;;;;5016706;28;20017;-74
2023/05/18 01:49:19;;;;;;;0.28;0.28;;;6.50;99.90;;;;;;5031888;28;20029;-74
2023/05/18 01:51:46;;;;;;;0.20;0.20;;;6.50;99.90;;;;;;5034161;28;20552;-74
2023/05/18 01:54:15;;;;;;;0.20;0.20;;;6.50;99.90;;;;;;5032344;28;20033;-73
2023/05/18 01:56:41;;;;;;;0.20;0.20;;;6.50;99.90;;;;;;5016367;28;20028;-74
2023/05/18 01:59:07;;;;;;;0.10;0.10;;;6.50;99.90;;;;;;5033903;28;20033;-74
2023/05/18 02:01:32;;;;;;;0.20;0.20;;;6.50;99.90;;;;;;5031043;28;20032;-74
2023/05/18 02:03:58;;;;;;;0.15;0.15;;;6.50;99.90;;;;;;5033616;28;20021;-74
2023/05/18 02:06:24;;;;;;;0.20;0.20;;;6.50;99.90;;;;;;5029354;28;20028;-74
2023/05/18 02:08:50;;;;;;;0.20;0.20;;;6.50;99.90;;;;;;5033478;28;20032;-75
2023/05/18 02:11:15;;;;;;;0.17;0.17;;;6.50;99.90;;;;;;5033528;28;20382;-74
2023/05/18 02:13:41;;;;;;;0.13;0.13;;;6.50;99.90;;;;;;5033733;28;20108;-74
2023/05/18 02:16:07;;;;;;;0.30;0.30;;;6.50;99.90;;;;;;5015918;28;20028;-74
2023/05/18 02:18:33;;;;;;;0.20;0.20;;;6.50;99.90;;;;;;5033628;28;20037;-74
2023/05/18 02:20:59;;;;;;;0.30;0.30;;;6.60;99.90;;;;;;5015774;28;20180;-74
2023/05/18 02:23:25;;;;;;;0.20;0.20;;;6.60;99.90;;;;;;5038605;23;20096;-70
2023/05/18 02:25:51;;;;;;;0.20;0.20;;;6.60;99.90;;;;;;5013664;28;20022;-70
2023/05/18 02:28:16;;;;;;;0.20;0.20;;;6.50;99.90;;;;;;5013658;28;20494;-71
2023/05/18 02:30:42;;;;;;;0.20;0.20;;;6.50;99.90;;;;;;5013417;28;20037;-71
2023/05/18 02:33:07;;;;;;;0.20;0.20;;;6.50;99.90;;;;;;5013558;28;20026;-71
2023/05/18 02:35:34;;;;;;;0.20;0.20;;;6.50;99.90;;;;;;5009666;28;20519;-70
2023/05/18 02:37:59;;;;;;;0.20;0.20;;;6.60;99.90;;;;;;4993981;28;20039;-70
2023/05/18 02:40:25;;;;;;;0.20;0.20;;;6.60;99.90;;;;;;4993640;28;20109;-70
2023/05/18 02:42:50;;;;;;;0.15;0.15;;;6.60;99.90;;;;;;5012666;28;20480;-71
2023/05/18 02:45:16;;;;;;;0.20;0.20;;;6.50;99.90;;;;;;5013025;28;20096;-71
2023/05/18 02:47:44;;;;;;;0.20;0.20;;;6.50;99.90;;;;;;5013345;28;20022;-70
2023/05/18 02:50:10;;;;;;;0.20;0.20;;;6.50;99.90;;;;;;5013085;28;20119;-70
2023/05/18 02:52:36;;;;;;;0.10;0.10;;;6.60;99.90;;;;;;5001507;28;20444;-71
2023/05/18 02:55:02;;;;;;;0.20;0.20;;;6.50;99.90;;;;;;4993874;28;20090;-71
2023/05/18 02:57:27;;;;;;;0.20;0.20;;;6.60;99.90;;;;;;4995379;28;20022;-71
2023/05/18 02:59:53;;;;;;;0.28;0.28;;;6.50;99.90;;;;;;4993457;28;20373;-71
2023/05/18 03:02:21;;;;;;;0.20;0.20;;;6.50;99.90;;;;;;4993154;28;20030;-70
2023/05/18 03:04:52;;;;;;;0.20;0.20;;;6.50;99.90;;;;;;5011834;28;20026;-71
2023/05/18 03:07:21;;;;;;;0.20;0.20;;;6.50;99.90;;;;;;5013000;28;20029;-71
2023/05/18 03:09:46;;;;;;;0.10;0.10;;;6.50;99.90;;;;;;5013034;28;20036;-71
2023/05/18 03:12:12;;;;;;;0.10;0.10;;;6.50;99.90;;;;;;5012810;28;20120;-70
2023/05/18 03:14:37;;;;;;;0.30;0.30;;;6.40;99.90;;;;;;5013469;28;20442;-71
2023/05/18 03:17:04;;;;;;;0.20;0.20;;;6.40;99.90;;;;;;5012989;28;20440;-71
2023/05/18 03:19:33;;;;;;;0.25;0.25;;;6.40;99.90;;;;;;5012862;28;20066;-70
2023/05/18 03:21:59;;;;;;;0.20;0.20;;;6.40;99.90;;;;;;5012527;28;20037;-70
2023/05/18 03:24:25;;;;;;;0.10;0.10;;;6.30;99.90;;;;;;5011275;28;20028;-71
2023/05/18 03:26:53;;;;;;;0.20;0.20;;;6.30;99.90;;;;;;5012765;28;20104;-70
2023/05/18 03:29:19;;;;;;;0.20;0.20;;;6.30;99.90;;;;;;5004354;28;20404;-71
2023/05/18 03:31:45;;;;;;;0.30;0.30;;;6.30;99.90;;;;;;4993368;28;20035;-71
2023/05/18 03:34:11;;;;;;;0.30;0.30;;;6.40;99.90;;;;;;4995028;28;20456;-70
2023/05/18 03:36:37;;;;;;;0.20;0.20;;;6.40;99.90;;;;;;5012969;28;20497;-71
2023/05/18 03:39:04;;;;;;;0.20;0.20;;;6.40;99.90;;;;;;5012700;28;20498;-71
2023/05/18 03:41:30;;;;;;;0.20;0.20;;;6.40;99.90;;;;;;5012768;28;20033;-70
2023/05/18 03:43:56;;;;;;;0.30;0.30;;;6.50;99.90;;;;;;5012650;28;20446;-71
2023/05/18 03:46:22;;;;;;;0.25;0.25;;;6.40;99.90;;;;;;5013381;28;20033;-71
2023/05/18 03:48:47;;;;;;;0.20;0.20;;;6.50;99.90;;;;;;5012972;28;20026;-71
2023/05/18 03:51:13;;;;;;;0.20;0.20;;;6.60;99.90;;;;;;5013177;28;20026;-71
2023/05/18 03:53:40;;;;;;;0.20;0.20;;;6.60;99.90;;;;;;5013584;28;20030;-70
2023/05/18 03:56:06;;;;;;;0.10;0.10;;;6.60;99.90;;;;;;5016554;28;20021;-71
2023/05/18 03:58:32;;;;;;;0.20;0.20;;;6.70;99.90;;;;;;5016357;28;20036;-71
2023/05/18 04:01:00;;;;;;;0.10;0.10;;;6.70;99.90;;;;;;5015202;28;20033;-71
2023/05/18 04:03:25;;;;;;;0.20;0.20;;;6.80;99.90;;;;;;5016295;28;20034;-71
2023/05/18 04:05:52;;;;;;;0.20;0.20;;;6.80;99.90;;;;;;5016292;28;20044;-71
2023/05/18 04:08:18;;;;;;;0.20;0.20;;;6.80;99.90;;;;;;5016737;28;20479;-71
2023/05/18 04:10:44;;;;;;;0.20;0.20;;;6.90;99.90;;;;;;5016527;28;20438;-71
2023/05/18 04:13:10;;;;;;;0.10;0.10;;;6.90;99.90;;;;;;5016132;28;20022;-71
2023/05/18 04:15:36;;;;;;;0.10;0.10;;;6.90;99.90;;;;;;5016729;28;20033;-71
2023/05/18 04:18:02;;;;;;;0.10;0.10;;;7.00;99.90;;;;;;5016065;28;20031;-71
2023/05/18 04:20:28;;;;;;;0.20;0.20;;;7.00;99.90;;;;;;5016036;28;20104;-71
2023/05/18 04:22:56;;;;;;;0.20;0.20;;;7.10;99.90;;;;;;5015885;28;20030;-71
2023/05/18 04:25:26;;;;;;;0.20;0.20;;;7.10;99.90;;;;;;5016044;28;20017;-71
2023/05/18 04:27:53;;;;;;;0.20;0.20;;;7.20;99.90;;;;;;5016241;28;20032;-70
2023/05/18 04:30:21;;;;;;;0.17;0.17;;;7.20;99.90;;;;;;5016226;28;20025;-71
2023/05/18 04:32:47;;;;;;;0.20;0.20;;;7.30;99.90;;;;;;5015819;28;20014;-71
2023/05/18 04:35:13;;;;;;;0.20;0.20;;;7.30;99.90;;;;;;5015800;28;20033;-71
2023/05/18 04:37:41;;;;;;;0.20;0.20;;;7.40;99.90;;;;;;5015856;28;20073;-70
2023/05/18 04:40:12;;;;;;;0.20;0.20;;;7.40;99.90;;;;;;5015643;28;20021;-71
2023/05/18 04:42:43;;;;;;;0.20;0.20;;;7.40;99.90;;;;;;5015752;28;20022;-71
2023/05/18 04:45:11;;;;;;;0.20;0.20;;;7.40;99.90;;;;;;5015688;28;20028;-71
2023/05/18 04:47:37;;;;;;;0.10;0.10;;;7.50;99.90;;;;;;5015583;28;20018;-71
2023/05/18 04:50:04;;;;;;;0.30;0.30;;;7.50;99.90;;;;;;5015467;28;20028;-71
2023/05/18 04:52:30;;;;;;;0.20;0.20;;;7.50;99.90;;;;;;5015441;28;20022;-70
2023/05/18 04:54:56;;;;;;;0.22;0.22;;;7.50;99.90;;;;;;5015393;28;20368;-71
2023/05/18 04:57:21;;;;;;;0.20;0.20;;;7.50;99.90;;;;;;5015403;28;20038;-71
2023/05/18 04:59:47;;;;;;;0.15;0.15;;;7.50;99.90;;;;;;5015758;28;20419;-70
2023/05/18 05:02:13;;;;;;;0.30;0.30;;;7.40;99.90;;;;;;5015260;28;20041;-71
2023/05/18 05:04:39;;;;;;;0.20;0.20;;;7.40;99.90;;;;;;5015021;28;20025;-71
2023/05/18 05:07:04;;;;;;;0.20;0.20;;;7.50;99.90;;;;;;5014555;28;20022;-71
2023/05/18 05:09:30;;;;;;;0.20;0.20;;;7.50;99.90;;;;;;5015214;28;20088;-71
2023/05/18 05:11:55;;;;;;;0.20;0.20;;;7.60;99.90;;;;;;5015085;28;20505;-71
2023/05/18 05:14:21;;;;;;;0.20;0.20;;;7.60;99.90;;;;;;5015362;28;20034;-71
2023/05/18 05:16:46;;;;;;;0.20;0.20;;;7.60;99.90;;;;;;5005433;28;20034;-70
2023/05/18 05:19:12;;;;;;;0.20;0.20;;;7.60;99.90;;;;;;5002403;28;20068;-71
2023/05/18 05:21:39;;;;;;;0.20;0.20;;;7.70;99.90;;;;;;5003683;28;20030;-71
2023/05/18 05:24:06;;;;;;;0.20;0.20;;;7.90;99.90;;;;;;5000837;28;20105;-71
2023/05/18 05:26:32;;;;;;;0.20;0.20;;;8.10;99.90;;;;;;5012496;28;20034;-71
2023/05/18 05:28:57;;;;;;;0.20;0.20;;;8.30;99.90;;;;;;5003241;28;20026;-71
2023/05/18 05:31:23;;;;;;;0.20;0.20;;;8.60;99.90;;;;;;4998589;28;20041;-71
2023/05/18 05:33:49;;;;;;;0.20;0.20;;;8.80;99.90;;;;;;5003818;28;20050;-71
2023/05/18 05:36:14;;;;;;;0.20;0.20;;;8.90;99.90;;;;;;4998442;28;20507;-71
2023/05/18 05:38:41;;;;;;;0.20;0.20;;;9.00;99.90;;;;;;4994823;28;20030;-71
2023/05/18 05:41:06;;;;;;;0.20;0.20;;;9.10;99.90;;;;;;4994926;28;20020;-71
2023/05/18 05:43:32;;;;;;;0.30;0.30;;;9.10;99.90;;;;;;4994865;28;20030;-71
2023/05/18 05:45:57;;;;;;;0.10;0.10;;;9.20;99.90;;;;;;5008579;28;20115;-70
2023/05/18 05:48:23;;;;;;;0.20;0.20;;;9.30;99.90;;;;;;5006196;28;20054;-71
2023/05/18 05:50:48;;;;;;;0.30;0.30;;;9.30;99.90;;;;;;5002095;28;20084;-70
2023/05/18 05:53:16;;;;;;;0.20;0.20;;;9.30;99.90;;;;;;4995672;28;20503;-71
2023/05/18 05:55:42;;;;;;;0.17;0.17;;;9.40;99.90;;;;;;5003274;28;20056;-71
2023/05/18 05:58:08;;;;;;;0.30;0.30;;;9.60;99.90;;;;;;5008350;28;20057;-71
2023/05/18 06:00:34;;;;;;;0.30;0.30;;;9.70;99.90;;;;;;5002591;28;20022;-71
2023/05/18 06:02:59;;;;;;;0.30;0.30;;;9.80;99.90;;;;;;5014112;28;20032;-71
2023/05/18 06:05:25;;;;;;;0.30;0.30;;;9.90;99.90;;;;;;5014041;28;20368;-71
2023/05/18 06:07:51;;;;;;;0.28;0.28;;;10.00;99.90;;;;;;5014101;28;20029;-71
2023/05/18 06:10:17;;;;;;;0.30;0.30;;;10.00;99.90;;;;;;5014134;28;20022;-70
2023/05/18 06:12:42;;;;;;;0.20;0.20;;;10.20;99.90;;;;;;5013980;28;20030;-71
2023/05/18 06:15:08;;;;;;;0.20;0.20;;;10.20;99.90;;;;;;5013911;28;20097;-71
2023/05/18 06:17:34;;;;;;;0.20;0.20;;;10.50;99.90;;;;;;5013607;28;20022;-71
2023/05/18 06:19:59;;;;;;;0.20;0.20;;;10.70;99.90;;;;;;5013122;28;20022;-71
2023/05/18 06:22:25;;;;;;;0.20;0.20;;;10.80;99.90;;;;;;5013523;28;20029;-71
2023/05/18 06:24:50;;;;;;;0.20;0.20;;;10.80;99.90;;;;;;5013829;28;20014;-71
2023/05/18 06:27:17;;;;;;;0.10;0.10;;;10.80;99.90;;;;;;5012970;28;20361;-71
2023/05/18 06:29:43;;;;;;;0.20;0.20;;;10.90;99.90;;;;;;5012506;28;20022;-72
2023/05/18 06:32:08;;;;;;;0.28;0.28;;;10.90;99.90;;;;;;5000789;28;20125;-71
2023/05/18 06:34:34;;;;;;;0.22;0.22;;;10.90;99.90;;;;;;4999654;28;20068;-72
2023/05/18 06:37:00;;;;;;;0.20;0.20;;;10.90;99.90;;;;;;5013317;28;20034;-71
2023/05/18 06:39:25;;;;;;;0.20;0.20;;;10.80;99.90;;;;;;5013299;28;20026;-70
2023/05/18 06:41:51;;;;;;;0.20;0.20;;;10.90;99.90;;;;;;5013439;28;20022;-71
2023/05/18 06:44:16;;;;;;;0.20;0.20;;;10.90;99.90;;;;;;5013469;28;20443;-71
2023/05/18 06:46:42;;;;;;;0.22;0.22;;;11.00;99.90;;;;;;5010904;28;20064;-71
2023/05/18 06:49:07;;;;;;;0.20;0.20;;;11.10;99.90;;;;;;4994249;28;20381;-71
2023/05/18 06:51:33;;;;;;;0.20;0.20;;;11.20;99.90;;;;;;4994932;28;20030;-70
2023/05/18 06:53:59;;;;;;;0.28;0.28;;;11.40;99.90;;;;;;5013364;28;20416;-71
2023/05/18 06:56:25;;;;;;;0.20;0.20;;;11.50;99.90;;;;;;5013221;28;20030;-71
2023/05/18 06:58:50;;;;;;;0.20;0.20;;;11.60;99.90;;;;;;5013001;28;20083;-71
2023/05/18 07:01:16;;;;;;;0.20;0.20;;;11.50;99.90;;;;;;5013623;28;20387;-71
2023/05/18 07:03:42;;;;;;;0.20;0.20;;;11.70;99.90;;;;;;5013062;28;20022;-71
2023/05/18 07:06:08;;;;;;;0.20;0.20;;;12.10;99.90;;;;;;5013419;28;20025;-71
2023/05/18 07:08:35;;;;;;;0.20;0.20;;;12.20;99.90;;;;;;5013011;28;20033;-71
2023/05/18 07:11:02;;;;;;;0.20;0.20;;;12.50;99.90;;;;;;5013490;28;20033;-71
2023/05/18 07:13:27;;;;;;;0.10;0.10;;;12.70;99.90;;;;;;5011361;28;20030;-71
2023/05/18 07:15:53;;;;;;;0.10;0.10;;;12.90;99.90;;;;;;5013116;28;20069;-70
2023/05/18 07:18:18;;;;;;;0.17;0.17;;;12.90;99.90;;;;;;5012971;28;20482;-70
2023/05/18 07:20:44;;;;;;;0.20;0.20;;;12.70;99.90;;;;;;5007920;28;20085;-70
2023/05/18 07:23:09;;;;;;;0.20;0.20;;;12.50;99.90;;;;;;4995224;28;20022;-70
2023/05/18 07:25:35;;;;;;;0.20;0.20;;;12.00;99.90;;;;;;5012870;28;20033;-70
2023/05/18 07:28:00;;;;;;;0.10;0.10;;;11.90;99.90;;;;;;5012968;28;20096;-71
2023/05/18 07:30:26;;;;;;;0.30;0.30;;;11.80;99.90;;;;;;5016724;28;20483;-71
2023/05/18 07:32:52;;;;;;;0.20;0.20;;;11.80;99.90;;;;;;5016676;28;20503;-71
2023/05/18 07:35:19;;;;;;;0.30;0.30;;;11.70;99.90;;;;;;5017055;28;20053;-71
2023/05/18 07:37:45;;;;;;;0.10;0.10;;;11.50;99.90;;;;;;5016724;28;20026;-71
2023/05/18 07:40:11;;;;;;;0.20;0.20;;;11.60;99.90;;;;;;5016478;28;20507;-71
2023/05/18 07:42:39;;;;;;;0.10;0.10;;;11.90;99.90;;;;;;5016900;28;20018;-71
2023/05/18 07:45:06;;;;;;;0.13;0.13;;;12.40;99.90;;;;;;5016603;28;20025;-71
2023/05/18 07:47:31;;;;;;;0.20;0.20;;;12.50;99.90;;;;;;5016306;28;20409;-70
2023/05/18 07:49:57;;;;;;;0.20;0.20;;;12.80;99.90;;;;;;5016568;28;20033;-71
2023/05/18 07:52:22;;;;;;;0.20;0.20;;;13.10;99.90;;;;;;5016454;28;20057;-71
2023/05/18 07:54:48;;;;;;;0.20;0.20;;;13.40;99.90;;;;;;5016447;28;20586;-71
2023/05/18 07:57:13;;;;;;;0.20;0.20;;;13.50;99.90;;;;;;5008541;28;20026;-71
2023/05/18 07:59:39;;;;;;;0.20;0.20;;;13.50;99.90;;;;;;5011815;28;20022;-71
2023/05/18 08:02:05;;;;;;;0.20;0.20;;;13.50;99.90;;;;;;5015510;28;20395;-71
2023/05/18 08:04:30;;;;;;;0.20;0.20;;;13.40;99.90;;;;;;5013131;28;20114;-71
2023/05/18 08:06:59;;;;;;;0.20;0.20;;;13.30;99.90;;;;;;5011589;28;20460;-70
2023/05/18 08:09:25;;;;;;;0.20;0.20;;;13.40;99.90;;;;;;5001165;28;20030;-72
2023/05/18 08:11:51;;;;;;;0.20;0.20;;;13.50;99.90;;;;;;5014913;28;20037;-71
2023/05/18 08:14:16;;;;;;;0.20;0.20;;;13.60;99.90;;;;;;5007885;28;20030;-71
2023/05/18 08:16:42;;;;;;;0.20;0.20;;;13.70;99.90;;;;;;4998800;28;20116;-71
2023/05/18 08:19:08;;;;;;;0.20;0.20;;;13.70;99.90;;;;;;5003055;28;20035;-71
2023/05/18 08:21:33;;;;;;;0.20;0.20;;;13.90;99.90;;;;;;5010692;28;20387;-71
2023/05/18 08:23:59;;;;;;;0.20;0.20;;;14.00;99.90;;;;;;5000967;28;20026;-71
2023/05/18 08:26:25;;;;;;;0.10;0.10;;;13.90;99.90;;;;;;5002432;28;20018;-71
2023/05/18 08:28:51;;;;;;;0.20;0.20;;;13.80;99.90;;;;;;5015893;28;20033;-70
2023/05/18 08:31:17;;;;;;;0.15;0.15;;;13.80;99.90;;;;;;5009598;28;20022;-71
2023/05/18 08:33:42;;;;;;;0.20;0.20;;;13.90;99.90;;;;;;4996083;28;20038;-71
2023/05/18 08:36:08;;;;;;;0.20;0.20;;;13.60;99.90;;;;;;5004186;28;20029;-71
2023/05/18 08:38:34;;;;;;;0.20;0.20;;;13.50;99.90;;;;;;5014875;28;20027;-71
2023/05/18 08:41:22;;;;;;;0.20;0.20;;;13.60;99.90;;;;;;5013035;28;20033;-71
2023/05/18 08:43:52;;;;;;;0.20;0.20;;;13.60;99.90;;;;;;4995923;28;20631;-71
2023/05/18 08:46:32;;;;;;;0.20;0.20;;;13.60;99.90;;;;;;5009503;28;20484;-71
2023/05/18 08:48:59;;;;;;;0.20;0.20;;;13.50;99.90;;;;;;5009318;28;20487;-71
2023/05/18 08:51:28;;;;;;;0.20;0.20;;;13.80;99.90;;;;;;5013464;28;20026;-71
2023/05/18 08:53:54;;;;;;;0.20;0.20;;;14.30;99.90;;;;;;5015249;28;20033;-71
2023/05/18 08:56:23;;;;;;;0.20;0.20;;;14.60;99.90;;;;;;5013100;28;20492;-71
2023/05/18 08:58:54;;;;;;;0.20;0.20;;;14.60;99.90;;;;;;4995800;28;20088;-72
2023/05/18 09:01:21;;;;;;;0.20;0.20;;;14.60;99.90;;;;;;5013726;28;20068;-71
2023/05/18 09:03:48;;;;;;;0.20;0.20;;;14.50;99.90;;;;;;5015079;28;20479;-71
2023/05/18 09:06:14;;;;;;;0.20;0.20;;;14.60;99.90;;;;;;5015233;28;20034;-71
2023/05/18 09:08:40;;;;;;;0.20;0.20;;;14.60;99.90;;;;;;5015140;28;20392;-71
2023/05/18 09:11:07;;;;;;;0.20;0.20;;;14.90;99.90;;;;;;5014820;28;20030;-71
2023/05/18 09:13:33;;;;;;;0.10;0.10;;;15.00;99.90;;;;;;5013912;28;20037;-71
2023/05/18 09:15:58;;;;;;;0.20;0.20;;;15.30;99.90;;;;;;5015589;28;20460;-72
2023/05/18 09:18:24;;;;;;;0.20;0.20;;;15.50;99.90;;;;;;5014958;28;20061;-72
2023/05/18 09:20:50;;;;;;;0.20;0.20;;;15.30;99.90;;;;;;5014978;28;20030;-72
2023/05/18 09:23:16;;;;;;;0.20;0.20;;;15.00;99.90;;;;;;5014834;28;20026;-72
2023/05/18 09:25:44;;;;;;;0.20;0.20;;;15.00;99.90;;;;;;5013718;28;20376;-72
2023/05/18 09:28:13;;;;;;;0.20;0.20;;;15.20;99.90;;;;;;5014871;28;20509;-72
2023/05/18 09:30:42;;;;;;;0.20;0.20;;;15.20;99.90;;;;;;5015102;28;20034;-74
2023/05/18 09:33:16;;;;;;;0.20;0.20;;;15.00;99.90;;;;;;5014683;28;20490;-75
2023/05/18 09:35:46;;;;;;;0.20;0.20;;;15.10;99.90;;;;;;5014741;28;20018;-75
2023/05/18 09:38:16;;;;;;;0.17;0.17;;;15.10;99.90;;;;;;5014927;28;20487;-74
2023/05/18 09:40:45;;;;;;;0.20;0.20;;;15.00;99.90;;;;;;5014605;28;20129;-74
2023/05/18 09:43:10;;;;;;;0.20;0.20;;;15.00;99.90;;;;;;5014614;28;20032;-74
2023/05/18 09:45:42;;;;;;;0.10;0.10;;;15.30;99.90;;;;;;5014619;28;20097;-74
2023/05/18 09:48:08;;;;;;;0.15;0.15;;;15.60;99.90;;;;;;5014729;28;20025;-74
2023/05/18 09:50:36;;;;;;;0.20;0.20;;;15.90;99.90;;;;;;5014474;28;20364;-74
2023/05/18 09:53:05;;;;;;;0.20;0.20;;;16.00;99.90;;;;;;5013912;28;20018;-74
2023/05/18 09:55:30;;;;;;;0.20;0.20;;;16.10;99.90;;;;;;5014763;28;20026;-74
2023/05/18 09:57:56;;;;;;;0.20;0.20;;;15.90;99.90;;;;;;5014206;28;20033;-74
2023/05/18 10:00:22;;;;;;;0.10;0.10;;;15.70;99.90;;;;;;5014340;28;20368;-74
2023/05/18 10:02:51;;;;;;;0.10;0.10;;;15.70;99.90;;;;;;5012988;28;20029;-74
2023/05/18 10:05:32;;;;;;;0.20;0.20;;;15.90;99.90;;;;;;5014183;28;20014;-74
2023/05/18 10:07:59;;;;;;;0.20;0.20;;;16.00;99.90;;;;;;5014746;28;20376;-74
2023/05/18 10:10:26;;;;;;;0.20;0.20;;;16.10;99.90;;;;;;5014053;28;20022;-74
2023/05/18 10:12:57;;;;;;;0.20;0.20;;;16.30;99.90;;;;;;5013997;28;20109;-74
2023/05/18 10:15:23;;;;;;;0.20;0.20;;;16.40;99.90;;;;;;5013756;28;20065;-74
2023/05/18 10:17:53;;;;;;;0.10;0.10;;;16.30;99.90;;;;;;5013993;28;20033;-73
2023/05/18 10:20:25;;;;;;;0.20;0.20;;;16.00;99.90;;;;;;5014269;28;20484;-74
2023/05/18 10:22:53;;;;;;;0.15;0.15;;;15.70;99.90;;;;;;5013752;28;20411;-74
2023/05/18 10:25:21;;;;;;;0.20;0.20;;;15.80;99.90;;;;;;5013998;28;20501;-74
2023/05/18 10:27:48;;;;;;;0.20;0.20;;;16.10;99.90;;;;;;5014036;28;20034;-74
2023/05/18 10:30:16;;;;;;;0.20;0.20;;;16.10;99.90;;;;;;5014335;28;20022;-74
2023/05/18 10:32:44;;;;;;;0.20;0.20;;;16.30;99.90;;;;;;5013588;28;20537;-74
2023/05/18 10:35:10;;;;;;;0.20;0.20;;;16.10;99.90;;;;;;5013788;28;20029;-74
2023/05/18 10:37:39;;;;;;;0.20;0.20;;;16.10;99.90;;;;;;5009626;28;20034;-74
2023/05/18 10:40:07;;;;;;;0.20;0.20;;;15.90;99.90;;;;;;5004959;28;20057;-74
2023/05/18 10:42:33;;;;;;;0.20;0.20;;;16.10;99.90;;;;;;5007856;28;20029;-74
2023/05/18 10:45:00;;;;;;;0.10;0.10;;;16.40;99.90;;;;;;5004008;28;20395;-74
2023/05/18 10:47:29;;;;;;;0.15;0.15;;;16.70;99.90;;;;;;5001278;28;20081;-74
2023/05/18 10:49:58;;;;;;;0.10;0.10;;;16.90;99.90;;;;;;5013472;28;20030;-75
2023/05/18 10:52:30;;;;;;;0.13;0.13;;;17.10;99.90;;;;;;5013709;28;20022;-75
2023/05/18 10:55:00;;;;;;;0.10;0.10;;;17.00;99.90;;;;;;5013304;28;20137;-76
2023/05/18 10:57:30;;;;;;;0.20;0.20;;;17.00;99.90;;;;;;5013658;28;20026;-75
2023/05/18 10:59:57;;;;;;;0.13;0.13;;;16.80;99.90;;;;;;5013480;28;20053;-76
2023/05/18 11:02:23;;;;;;;0.20;0.20;;;16.80;99.90;;;;;;5012444;28;20059;-76
2023/05/18 11:04:49;;;;;;;0.10;0.10;;;17.20;99.90;;;;;;5000755;28;20018;-74
2023/05/18 11:07:14;;;;;;;0.10;0.10;;;16.90;99.90;;;;;;5013218;28;20049;-72
2023/05/18 11:09:41;;;;;;;0.20;0.20;;;16.80;99.90;;;;;;5003891;28;20045;-72
2023/05/18 11:12:16;;;;;;;0.10;0.10;;;16.80;99.90;;;;;;4993635;28;20030;-73
2023/05/18 11:14:52;;;;;;;0.20;0.20;;;17.00;99.90;;;;;;4992372;28;20026;-72
2023/05/18 11:17:22;;;;;;;0.20;0.20;;;16.90;99.90;;;;;;4993471;28;20042;-73
2023/05/18 11:20:06;;;;;;;0.17;0.17;;;16.90;99.90;;;;;;4993789;28;20019;-72
2023/05/18 11:23:00;;;;;;;0.10;0.10;;;17.00;99.90;;;;;;4993186;28;20399;-70
2023/05/18 11:25:26;;;;;;;0.20;0.20;;;17.80;99.90;;;;;;4993540;28;20027;-72
2023/05/18 11:28:00;;;;;;;0.20;0.20;;;18.30;99.90;;;;;;5011670;28;20021;-73
2023/05/18 11:30:32;;;;;;;0.10;0.10;;;18.90;99.90;;;;;;5012947;28;20040;-74
2023/05/18 11:33:08;;;;;;;0.17;0.17;;;19.40;99.90;;;;;;5013274;28;20383;-73
2023/05/18 11:35:53;;;;;;;0.20;0.20;;;19.70;99.90;;;;;;5013055;28;20037;-75
2023/05/18 11:38:18;;;;;;;0.20;0.20;;;20.10;99.90;;;;;;5013029;28;20387;-73
2023/05/18 11:40:48;;;;;;;0.10;0.10;;;20.40;99.90;;;;;;5012811;28;20018;-72
2023/05/18 11:43:23;;;;;;;0.10;0.10;;;20.40;99.90;;;;;;5012899;28;20415;-73
2023/05/18 11:45:57;;;;;;;0.10;0.10;;;19.70;99.90;;;;;;5010297;28;20030;-72
2023/05/18 11:48:25;;;;;;;0.17;0.17;;;18.70;99.90;;;;;;5008640;28;20072;-72
2023/05/18 11:50:55;;;;;;;0.17;0.17;;;18.20;99.90;;;;;;4993261;28;20392;-72
2023/05/18 11:53:25;;;;;;;0.10;0.10;;;18.50;99.90;;;;;;4993223;28;20030;-72
2023/05/18 11:55:53;;;;;;;0.20;0.20;;;19.20;99.90;;;;;;5002158;28;20029;-73
2023/05/18 11:58:20;;;;;;;0.10;0.10;;;19.40;99.90;;;;;;5012836;28;20022;-72
2023/05/18 12:00:47;;;;;;;0.10;0.10;;;19.00;99.90;;;;;;5012760;28;20026;-72
2023/05/18 12:03:13;;;;;;;0.10;0.10;;;18.90;99.90;;;;;;5012817;28;20456;-72
2023/05/18 12:05:48;;;;;;;0.10;0.10;;;18.80;99.90;;;;;;5012986;28;20032;-72
2023/05/18 12:08:27;;;;;;;0.10;0.10;;;19.10;99.90;;;;;;4993382;28;20066;-72
2023/05/18 12:10:54;;;;;;;0.10;0.10;;;20.30;99.90;;;;;;4998104;28;20056;-72
2023/05/18 12:13:21;;;;;;;0.10;0.10;;;21.00;99.90;;;;;;5011165;28;20109;-72
2023/05/18 12:15:47;;;;;;;0.10;0.10;;;21.40;99.90;;;;;;5003060;28;20022;-73
2023/05/18 12:18:13;;;;;;;0.10;0.10;;;21.60;99.90;;;;;;5015919;28;20427;-73
2023/05/18 12:20:39;;;;;;;0.10;0.10;;;21.40;99.90;;;;;;5016163;28;20048;-72
2023/05/18 12:23:05;;;;;;;0.10;0.10;;;21.10;99.90;;;;;;5015811;28;20045;-72
2023/05/18 12:25:31;;;;;;;0.17;0.17;;;20.00;99.90;;;;;;5003657;28;20023;-73
2023/05/18 12:27:58;;;;;;;0.10;0.10;;;18.80;99.90;;;;;;5003694;28;20049;-72
2023/05/18 12:30:33;;;;;;;0.10;0.10;;;17.90;99.90;;;;;;5016278;28;20026;-74
2023/05/18 12:33:01;;;;;;;0.13;0.13;;;18.00;99.90;;;;;;5015891;28;20437;-72
2023/05/18 12:35:27;;;;;;;0.10;0.10;;;18.80;99.90;;;;;;5015683;28;20562;-73
2023/05/18 12:37:54;;;;;;;0.20;0.20;;;18.40;99.90;;;;;;5015646;28;20037;-72
2023/05/18 12:40:21;;;;;;;0.10;0.10;;;18.30;99.90;;;;;;5015708;28;20025;-72
2023/05/18 12:42:58;;;;;;;0.20;0.20;;;18.30;99.90;;;;;;5015510;28;20030;-73
2023/05/18 12:45:30;;;;;;;0.20;0.20;;;18.50;99.90;;;;;;5015444;28;20475;-73
2023/05/18 12:48:02;;;;;;;0.10;0.10;;;19.70;99.90;;;;;;5015820;28;20056;-73
2023/05/18 12:50:28;;;;;;;0.10;0.10;;;20.30;99.90;;;;;;5015491;28;20112;-73
2023/05/18 12:52:55;;;;;;;0.00;0.00;;;21.10;99.90;;;;;;5015518;28;20065;-71